EBAW

Antwerp International (Deurne) Airport

Antwerp, Belgium
METAR EBAW 251450Z 11003KT 070V160 9999 SCT049 16/04 Q1037 NOSIG
Observed Flight Rules
Sep-25 @ 14:50 UTC (21 minutes ago) Visual Flight Rules
Wind Visibility Clouds
110° at 3 knots 10,000+ meters
  • Scattered at 4,900' AGL
Temperatures Readings
Current 16°C / 61°F
Dewpoint 4°C / 39°F
Humidity 45%
Altimeter 30.62" Hg
Pressure 1037 hPa
Elevation 14
METAR EBAW 251450Z 11003KT 070V160 9999 SCT049 16/04 Q1037 NOSIG
Observed Flight Rules
Sep-25 @ 14:50 UTC
(21 minutes ago)
VFR
Wind Visibility
110° at 3 knots 10,000+ meters
Clouds
  • Scattered at 4,900' AGL
Temperature Dewpoint
16°C / 61°F 4°C / 39°F
Humidity Altimeter Pressure
45% 30.62" Hg 1037 hPa